Terminal Aerodrome Forecast
Issued by NWS Pittsburgh, PA

Home | Current Version | Previous Version | Text Only | Print | Product List | Glossary On
Versions: 1 2 3 4 5 6 7 8 9 10 11 12 13 14 15 16 17 18 19 20 21 22 23 24 25 26 27
000
FTUS41 KPBZ 240520
TAFPIT
TAF
KPIT 240520Z 2406/2512 13005KT P6SM VCSH BKN050
     FM241200 12012KT P6SM VCSH SCT025 BKN035
      TEMPO 2412/2416 BKN025
     FM250000 12012KT 5SM -SHRA OVC025
     FM250600 12010KT P6SM -SHRA OVC020=

USA.gov is the U.S. government's official web portal to all federal, state and local government web resources and services.